createdAt,value
2022-08-18T00:01:41.753Z,11.00
2022-08-18T00:04:25.195Z,14.05
2022-08-18T00:06:58.401Z,16.88
2022-08-18T00:09:31.534Z,13.60
2022-08-18T00:12:01.946Z,12.88
2022-08-18T00:14:29.570Z,15.45
2022-08-18T00:16:57.548Z,14.13
2022-08-18T00:19:47.043Z,13.52
2022-08-18T00:22:15.789Z,14.38
2022-08-18T00:24:48.256Z,18.35
2022-08-18T00:27:19.670Z,17.83
2022-08-18T00:29:49.824Z,20.80
2022-08-18T00:32:18.530Z,19.50
2022-08-18T00:34:46.216Z,17.45
2022-08-18T00:37:13.705Z,18.15
2022-08-18T00:39:46.378Z,16.02
2022-08-18T00:42:26.946Z,18.02
2022-08-18T00:44:56.867Z,21.73
2022-08-18T00:47:37.062Z,15.55
2022-08-18T00:50:21.369Z,16.88
2022-08-18T00:52:53.602Z,15.20
2022-08-18T00:55:21.426Z,12.27
2022-08-18T00:57:51.552Z,17.67
2022-08-18T01:00:19.567Z,11.15
2022-08-18T01:02:52.837Z,11.35
2022-08-18T01:05:23.527Z,13.70
2022-08-18T01:07:51.646Z,17.60
2022-08-18T01:10:21.257Z,14.82
2022-08-18T01:12:50.976Z,13.13
2022-08-18T01:15:29.151Z,16.48
2022-08-18T01:18:17.724Z,13.30
2022-08-18T01:21:22.723Z,17.35
2022-08-18T01:23:50.781Z,14.52
2022-08-18T01:26:18.816Z,14.90
2022-08-18T01:28:49.544Z,18.33
2022-08-18T01:31:37.743Z,19.70
2022-08-18T01:34:09.819Z,13.52
2022-08-18T01:36:41.508Z,15.07
2022-08-18T01:39:10.713Z,12.30
2022-08-18T01:41:38.797Z,16.80
2022-08-18T01:44:08.854Z,10.82
2022-08-18T01:46:36.582Z,9.43
2022-08-18T01:49:04.488Z,9.02
2022-08-18T01:51:39.709Z,7.13
2022-08-18T01:54:09.147Z,9.07
2022-08-18T01:56:37.186Z,9.82
2022-08-18T01:59:06.557Z,12.52
2022-08-18T02:01:39.019Z,5.80
2022-08-18T02:04:34.353Z,6.55
2022-08-18T02:07:04.233Z,6.47
2022-08-18T02:09:32.008Z,9.55
2022-08-18T02:12:00.199Z,8.63
2022-08-18T02:14:27.785Z,8.18
2022-08-18T02:17:01.366Z,6.95
2022-08-18T02:19:29.858Z,7.75
2022-08-18T02:21:57.347Z,6.40
2022-08-18T02:24:25.091Z,5.95
2022-08-18T02:26:52.524Z,17.67
2022-08-18T02:29:19.991Z,7.35
2022-08-18T02:31:47.496Z,4.15
2022-08-18T02:34:16.065Z,8.77
2022-08-18T02:36:44.290Z,14.65
2022-08-18T02:39:12.166Z,5.80
2022-08-18T02:41:39.696Z,3.63
2022-08-18T02:44:07.709Z,8.90
2022-08-18T02:46:35.537Z,8.27
2022-08-18T02:49:03.837Z,13.20
2022-08-18T02:51:31.381Z,6.13
2022-08-18T02:53:59.741Z,9.23
2022-08-18T02:56:39.918Z,5.68
2022-08-18T02:59:14.762Z,6.63
2022-08-18T03:01:45.091Z,6.63
2022-08-18T03:04:14.487Z,9.38
2022-08-18T03:06:42.355Z,8.63
2022-08-18T03:09:12.148Z,7.45
2022-08-18T03:11:39.800Z,10.00
2022-08-18T03:14:11.120Z,7.07
2022-08-18T03:16:40.578Z,4.93
2022-08-18T03:19:21.171Z,6.30
2022-08-18T03:21:48.728Z,9.20
2022-08-18T03:24:22.735Z,10.60
2022-08-18T03:26:52.067Z,5.75
2022-08-18T03:29:19.778Z,6.32
2022-08-18T03:31:48.923Z,8.50
2022-08-18T03:34:19.865Z,13.38
2022-08-18T03:36:48.001Z,3.90
2022-08-18T03:39:15.531Z,6.60
2022-08-18T03:41:58.022Z,6.03
2022-08-18T03:44:27.967Z,9.68
2022-08-18T03:46:55.476Z,7.72
2022-08-18T03:49:22.934Z,5.57
2022-08-18T03:51:51.812Z,2.10
2022-08-18T03:54:19.599Z,7.95
2022-08-18T03:56:50.791Z,10.57
2022-08-18T03:59:20.204Z,4.47
2022-08-18T04:01:48.780Z,6.05
2022-08-18T04:04:19.167Z,4.93
2022-08-18T04:06:51.918Z,5.57
2022-08-18T04:09:20.411Z,7.68
2022-08-18T04:11:48.190Z,7.13
2022-08-18T04:14:21.297Z,5.88
2022-08-18T04:16:49.357Z,4.07
2022-08-18T04:19:26.507Z,7.88
2022-08-18T04:21:55.556Z,10.68
2022-08-18T04:24:23.079Z,10.18
2022-08-18T04:26:50.833Z,3.05
2022-08-18T04:29:19.803Z,4.85
2022-08-18T04:31:47.895Z,7.13
2022-08-18T04:34:15.755Z,7.45
2022-08-18T04:36:43.728Z,6.15
2022-08-18T04:39:12.166Z,8.43
2022-08-18T04:41:40.639Z,5.07
2022-08-18T04:44:09.325Z,5.57
2022-08-18T04:46:41.386Z,3.40
2022-08-18T04:49:10.423Z,10.00
2022-08-18T04:52:32.064Z,3.38
2022-08-18T04:54:28.254Z,10.85
2022-08-18T04:56:55.897Z,9.70
2022-08-18T04:59:23.356Z,5.78
2022-08-18T05:01:50.817Z,4.70
2022-08-18T05:04:18.796Z,6.13
2022-08-18T05:06:46.685Z,7.00
2022-08-18T05:09:16.368Z,7.53
2022-08-18T05:11:50.801Z,7.43
2022-08-18T05:14:18.977Z,6.10
2022-08-18T05:16:48.694Z,2.75
2022-08-18T05:19:23.102Z,3.67
2022-08-18T05:21:52.260Z,5.55
2022-08-18T05:24:21.527Z,6.40
2022-08-18T05:26:49.689Z,2.92
2022-08-18T05:29:18.640Z,2.95
2022-08-18T05:31:47.944Z,8.30
2022-08-18T05:34:16.029Z,4.55
2022-08-18T05:36:49.427Z,10.65
2022-08-18T05:39:19.972Z,6.45
2022-08-18T05:42:07.690Z,10.05
2022-08-18T05:44:41.672Z,14.20
2022-08-18T05:47:21.074Z,7.65
2022-08-18T05:49:49.274Z,5.40
2022-08-18T05:52:20.419Z,2.97
2022-08-18T05:55:07.904Z,5.60
2022-08-18T05:57:40.934Z,5.63
2022-08-18T06:00:11.030Z,8.52
2022-08-18T06:02:53.185Z,11.40
2022-08-18T06:05:24.860Z,7.00
2022-08-18T06:07:55.721Z,17.48
2022-08-18T06:10:23.796Z,9.02
2022-08-18T06:12:53.677Z,22.13
2022-08-18T06:15:39.867Z,7.53
2022-08-18T06:18:37.473Z,18.10
2022-08-18T06:23:51.081Z,11.70
2022-08-18T06:26:24.842Z,12.88
2022-08-18T06:28:55.374Z,6.78
2022-08-18T06:31:32.200Z,7.18
2022-08-18T06:34:12.467Z,8.02
2022-08-18T06:36:52.355Z,8.85
2022-08-18T06:39:19.846Z,10.07
2022-08-18T06:41:51.687Z,15.40
2022-08-18T06:44:28.765Z,14.77
2022-08-18T06:47:04.416Z,16.10
2022-08-18T06:49:36.746Z,8.70
2022-08-18T06:52:22.280Z,14.15
2022-08-18T06:54:51.609Z,6.85
2022-08-18T06:57:24.119Z,5.57
2022-08-18T07:00:06.280Z,6.65
2022-08-18T07:02:43.026Z,5.70
2022-08-18T07:05:21.224Z,11.18
2022-08-18T07:08:04.560Z,12.43
2022-08-18T07:10:34.632Z,10.90
2022-08-18T07:13:08.577Z,8.88
2022-08-18T07:15:36.486Z,11.15
2022-08-18T07:18:07.589Z,11.13
2022-08-18T07:20:55.191Z,10.65
2022-08-18T07:23:27.704Z,8.20
2022-08-18T07:26:02.824Z,6.97
2022-08-18T07:28:33.004Z,9.75
2022-08-18T07:31:19.726Z,6.40
2022-08-18T07:33:50.611Z,11.27
2022-08-18T07:36:18.185Z,8.98
2022-08-18T07:38:45.704Z,10.23
2022-08-18T07:41:33.424Z,9.60
2022-08-18T07:44:18.496Z,11.50
2022-08-18T07:47:00.589Z,12.38
2022-08-18T07:49:30.496Z,9.65
2022-08-18T07:52:03.985Z,9.73
2022-08-18T07:54:50.824Z,11.73
2022-08-18T07:59:48.494Z,7.93
2022-08-18T08:02:34.860Z,12.20
2022-08-18T08:05:05.271Z,22.58
2022-08-18T08:07:43.984Z,10.85
2022-08-18T08:10:19.033Z,16.15
2022-08-18T08:13:09.436Z,11.07
2022-08-18T08:15:50.983Z,5.32
2022-08-18T08:18:24.108Z,8.88
2022-08-18T08:21:07.150Z,13.68
2022-08-18T08:23:53.370Z,8.23
2022-08-18T08:26:53.752Z,10.90
2022-08-18T08:29:36.415Z,18.55
2022-08-18T08:32:16.205Z,13.63
2022-08-18T08:34:46.696Z,26.05
2022-08-18T08:37:17.002Z,14.48
2022-08-18T08:40:00.345Z,14.43
2022-08-18T08:43:06.964Z,6.63
2022-08-18T08:45:36.352Z,8.65
2022-08-18T08:48:15.318Z,7.75
2022-08-18T08:50:46.111Z,7.40
2022-08-18T08:53:33.253Z,12.73
2022-08-18T08:56:07.343Z,13.05
2022-08-18T08:58:40.827Z,6.05
2022-08-18T09:01:11.427Z,14.55
2022-08-18T09:03:59.255Z,19.73
2022-08-18T09:06:40.707Z,19.38
2022-08-18T09:09:08.281Z,5.03
2022-08-18T09:11:58.671Z,15.52
2022-08-18T09:15:03.236Z,12.68
2022-08-18T09:17:42.395Z,15.95
2022-08-18T09:20:17.034Z,20.25
2022-08-18T09:22:49.719Z,9.57
2022-08-18T09:25:35.239Z,6.18
2022-08-18T09:28:13.764Z,8.38
2022-08-18T09:30:47.545Z,9.70
2022-08-18T09:33:34.548Z,13.63
2022-08-18T09:36:20.372Z,10.60
2022-08-18T09:39:12.805Z,11.02
2022-08-18T09:42:11.036Z,16.33
2022-08-18T09:44:42.826Z,16.13
2022-08-18T09:47:11.193Z,15.38
2022-08-18T09:49:47.847Z,14.10
2022-08-18T09:52:26.469Z,11.45
2022-08-18T09:55:00.395Z,9.17
2022-08-18T09:57:42.015Z,7.60
2022-08-18T10:00:14.036Z,9.98
2022-08-18T10:02:47.595Z,12.05
2022-08-18T10:05:20.146Z,12.30
2022-08-18T10:07:50.044Z,10.63
2022-08-18T10:13:27.604Z,9.57
2022-08-18T10:16:18.205Z,8.10
2022-08-18T10:19:04.184Z,10.60
2022-08-18T10:21:53.737Z,11.85
2022-08-18T10:24:35.063Z,23.48
2022-08-18T10:27:09.849Z,14.98
2022-08-18T10:29:44.424Z,26.63
2022-08-18T10:32:15.029Z,32.05
2022-08-18T10:34:51.680Z,15.10
2022-08-18T10:37:20.294Z,7.68
2022-08-18T10:39:59.244Z,11.52
2022-08-18T10:45:35.380Z,13.32
2022-08-18T10:50:31.284Z,8.48
2022-08-18T10:56:02.597Z,18.58
2022-08-18T10:58:58.214Z,13.10
2022-08-18T11:01:44.291Z,10.38
2022-08-18T11:04:32.684Z,11.77
2022-08-18T11:07:18.317Z,15.55
2022-08-18T11:09:57.205Z,9.82
2022-08-18T11:12:37.711Z,7.13
2022-08-18T11:15:22.232Z,10.15
2022-08-18T11:17:57.714Z,5.95
2022-08-18T11:20:30.605Z,8.30
2022-08-18T11:23:00.689Z,13.07
2022-08-18T11:28:20.573Z,15.95
2022-08-18T11:30:53.397Z,10.15
2022-08-18T11:36:09.465Z,11.55
2022-08-18T11:38:39.419Z,19.10
2022-08-18T11:41:13.851Z,9.55
2022-08-18T11:43:43.182Z,9.80
2022-08-18T11:49:15.603Z,20.15
2022-08-18T11:51:54.865Z,18.20
2022-08-18T11:54:24.621Z,31.83
2022-08-18T11:56:53.079Z,32.83
2022-08-18T11:59:53.749Z,17.73
2022-08-18T12:02:20.928Z,22.35
2022-08-18T12:04:53.287Z,21.05
2022-08-18T12:07:35.305Z,24.48
2022-08-18T12:10:16.447Z,24.95
2022-08-18T12:12:51.967Z,23.42
2022-08-18T12:15:22.799Z,15.73
2022-08-18T12:17:52.826Z,18.38
2022-08-18T12:20:21.671Z,18.38
2022-08-18T12:22:49.999Z,18.17
2022-08-18T12:25:25.179Z,19.48
2022-08-18T12:27:54.180Z,19.52
2022-08-18T12:30:21.925Z,18.83
2022-08-18T12:32:56.425Z,21.25
2022-08-18T12:35:38.442Z,18.55
2022-08-18T12:38:12.987Z,14.65
2022-08-18T12:40:42.910Z,15.73
2022-08-18T12:43:10.859Z,20.55
2022-08-18T12:45:39.233Z,16.83
2022-08-18T12:48:08.608Z,20.15
2022-08-18T12:53:30.682Z,14.38
2022-08-18T12:56:13.215Z,21.35
2022-08-18T12:58:41.641Z,10.75
2022-08-18T13:01:09.413Z,13.98
2022-08-18T13:03:37.972Z,12.35
2022-08-18T13:06:10.323Z,14.52
2022-08-18T13:08:49.938Z,7.47
2022-08-18T13:11:26.746Z,7.20
2022-08-18T13:13:57.197Z,11.50
2022-08-18T13:16:39.233Z,13.30
2022-08-18T13:19:14.590Z,8.82
2022-08-18T13:21:43.313Z,9.35
2022-08-18T13:24:13.002Z,13.90
2022-08-18T13:26:43.302Z,18.50
2022-08-18T13:29:14.230Z,10.00
2022-08-18T13:31:45.616Z,11.00
2022-08-18T13:34:24.295Z,8.63
2022-08-18T13:36:52.068Z,8.48
2022-08-18T13:39:22.685Z,13.30
2022-08-18T13:41:52.785Z,9.95
2022-08-18T13:44:21.265Z,852.83
2022-08-18T13:46:49.504Z,1999.90
2022-08-18T13:49:18.643Z,847.70
2022-08-18T13:51:52.824Z,620.70
2022-08-18T13:54:31.062Z,596.10
2022-08-18T13:57:00.341Z,387.38
2022-08-18T13:59:31.843Z,364.23
2022-08-18T14:02:00.766Z,309.45
2022-08-18T14:04:29.756Z,247.27
2022-08-18T14:06:59.825Z,219.52
2022-08-18T14:09:37.397Z,179.00
2022-08-18T14:12:07.360Z,166.65
2022-08-18T14:14:51.905Z,145.73
2022-08-18T14:17:20.210Z,128.63
2022-08-18T14:20:10.342Z,121.70
2022-08-18T14:23:01.392Z,109.68
2022-08-18T14:25:49.704Z,97.07
2022-08-18T14:28:24.793Z,78.72
2022-08-18T14:30:54.695Z,85.35
2022-08-18T14:33:49.462Z,71.15
2022-08-18T14:36:12.377Z,66.20
2022-08-18T14:38:40.257Z,79.28
2022-08-18T14:41:10.741Z,80.43
2022-08-18T14:44:04.540Z,88.03
2022-08-18T14:46:30.564Z,100.05
2022-08-18T14:49:04.002Z,84.53
2022-08-18T14:51:33.425Z,76.68
2022-08-18T14:54:04.578Z,85.32
2022-08-18T14:56:33.859Z,82.47
2022-08-18T14:59:08.081Z,68.20
2022-08-18T15:01:42.533Z,55.83
2022-08-18T15:04:19.329Z,85.25
2022-08-18T15:06:56.125Z,69.97
2022-08-18T15:09:30.082Z,45.78
2022-08-18T15:11:58.642Z,56.65
2022-08-18T15:14:33.586Z,42.00
2022-08-18T15:17:03.004Z,49.67
2022-08-18T15:20:00.447Z,37.17
2022-08-18T15:22:45.613Z,36.75
2022-08-18T15:25:31.857Z,36.38
2022-08-18T15:30:27.310Z,29.05
2022-08-18T15:32:55.498Z,30.48
2022-08-18T15:35:23.052Z,26.05
2022-08-18T15:37:51.618Z,26.45
2022-08-18T15:40:30.973Z,23.50
2022-08-18T15:43:09.763Z,22.35
2022-08-18T15:45:43.522Z,19.83
2022-08-18T15:48:25.154Z,29.20
2022-08-18T15:50:53.595Z,15.20
2022-08-18T15:53:22.694Z,15.45
2022-08-18T15:55:50.544Z,10.73
2022-08-18T15:58:22.365Z,12.88
2022-08-18T16:00:54.695Z,14.30
2022-08-18T16:03:22.204Z,10.80
2022-08-18T16:05:52.901Z,13.55
2022-08-18T16:08:25.025Z,11.60
2022-08-18T16:10:53.650Z,10.40
2022-08-18T16:13:21.329Z,10.60
2022-08-18T16:15:50.429Z,12.15
2022-08-18T16:18:18.877Z,11.38
2022-08-18T16:20:46.448Z,9.68
2022-08-18T16:23:13.947Z,10.77
2022-08-18T16:25:41.912Z,10.30
2022-08-18T16:28:10.044Z,9.52
2022-08-18T16:30:37.687Z,40.45
2022-08-18T16:33:06.577Z,17.60
2022-08-18T16:35:34.602Z,17.65
2022-08-18T16:38:06.556Z,15.93
2022-08-18T16:40:34.049Z,20.92
2022-08-18T16:43:01.617Z,9.18
2022-08-18T16:45:32.067Z,11.38
2022-08-18T16:48:00.861Z,22.75
2022-08-18T16:50:28.403Z,16.52
2022-08-18T16:52:56.696Z,24.73
2022-08-18T16:55:24.217Z,15.63
2022-08-18T16:58:14.895Z,18.67
2022-08-18T17:01:01.670Z,15.05
2022-08-18T17:03:48.021Z,12.48
2022-08-18T17:06:18.341Z,8.27
2022-08-18T17:08:45.859Z,11.25
2022-08-18T17:11:16.246Z,9.40
2022-08-18T17:13:44.413Z,10.27
2022-08-18T17:16:12.278Z,5.85
2022-08-18T17:18:40.255Z,6.00
2022-08-18T17:21:08.697Z,8.25
2022-08-18T17:23:38.887Z,8.07
2022-08-18T17:26:08.247Z,7.75
2022-08-18T17:28:43.955Z,6.50
2022-08-18T17:31:22.683Z,8.57
2022-08-18T17:33:50.305Z,14.68
2022-08-18T17:36:21.862Z,10.25
2022-08-18T17:38:58.224Z,6.72
2022-08-18T17:41:26.517Z,11.27
2022-08-18T17:44:00.919Z,6.38
2022-08-18T17:46:32.277Z,10.80
2022-08-18T17:49:01.715Z,7.72
2022-08-18T17:51:43.422Z,10.68
2022-08-18T17:54:36.699Z,10.75
2022-08-18T17:57:15.005Z,8.88
2022-08-18T17:59:52.022Z,4.70
2022-08-18T18:02:30.284Z,5.30
2022-08-18T18:04:58.716Z,5.50
2022-08-18T18:07:30.986Z,10.80
2022-08-18T18:10:01.785Z,8.07
2022-08-18T18:12:30.488Z,5.75
2022-08-18T18:14:58.848Z,4.32
2022-08-18T18:17:32.570Z,8.35
2022-08-18T18:20:15.601Z,8.27
2022-08-18T18:22:44.093Z,6.80
2022-08-18T18:25:13.200Z,8.32
2022-08-18T18:27:43.129Z,4.80
2022-08-18T18:30:27.878Z,7.25
2022-08-18T18:32:59.847Z,5.55
2022-08-18T18:35:27.935Z,6.43
2022-08-18T18:38:01.012Z,10.23
2022-08-18T18:40:31.097Z,9.02
2022-08-18T18:42:59.538Z,15.13
2022-08-18T18:45:31.177Z,19.52
2022-08-18T18:47:58.638Z,10.32
2022-08-18T18:50:53.001Z,12.02
2022-08-18T18:53:29.813Z,18.65
2022-08-18T18:56:18.966Z,21.17
2022-08-18T18:58:49.572Z,23.00
2022-08-18T19:01:36.206Z,21.40
2022-08-18T19:06:49.852Z,15.10
2022-08-18T19:09:20.284Z,61.20
2022-08-18T19:11:57.840Z,16.60
2022-08-18T19:14:29.681Z,27.92
2022-08-18T19:17:00.427Z,19.42
2022-08-18T19:19:37.738Z,28.45
2022-08-18T19:22:15.952Z,24.13
2022-08-18T19:24:53.540Z,27.70
2022-08-18T19:27:34.309Z,27.27
2022-08-18T19:30:04.261Z,24.05
2022-08-18T19:32:37.714Z,35.55
2022-08-18T19:35:12.188Z,31.33
2022-08-18T19:37:53.984Z,29.33
2022-08-18T19:40:28.242Z,26.55
2022-08-18T19:43:07.489Z,27.67
2022-08-18T19:45:55.690Z,25.70
2022-08-18T19:48:29.391Z,29.00
2022-08-18T19:51:16.158Z,19.98
2022-08-18T19:53:59.115Z,21.85
2022-08-18T19:56:33.887Z,20.55
2022-08-18T19:59:17.799Z,22.27
2022-08-18T20:01:52.528Z,19.40
2022-08-18T20:04:19.989Z,19.92
2022-08-18T20:07:06.738Z,20.65
2022-08-18T20:09:41.303Z,11.93
2022-08-18T20:12:11.672Z,13.02
2022-08-18T20:14:41.823Z,22.63
2022-08-18T20:17:18.222Z,12.43
2022-08-18T20:19:45.895Z,27.48
2022-08-18T20:22:24.300Z,48.33
2022-08-18T20:24:53.063Z,28.48
2022-08-18T20:27:23.601Z,22.13
2022-08-18T20:30:01.576Z,15.43
2022-08-18T20:32:32.185Z,28.30
2022-08-18T20:35:20.117Z,14.25
2022-08-18T20:37:47.931Z,11.02
2022-08-18T20:40:35.749Z,33.63
2022-08-18T20:43:07.149Z,16.88
2022-08-18T20:45:36.455Z,17.33
2022-08-18T20:48:33.830Z,18.95
2022-08-18T20:51:04.322Z,13.55
2022-08-18T20:53:32.859Z,21.50
2022-08-18T20:56:13.082Z,31.33
2022-08-18T20:59:03.936Z,12.10
2022-08-18T21:01:36.670Z,19.75
2022-08-18T21:04:04.849Z,15.07
2022-08-18T21:06:34.157Z,13.80
2022-08-18T21:09:02.127Z,30.70
2022-08-18T21:11:35.224Z,12.70
2022-08-18T21:14:04.387Z,26.67
2022-08-18T21:16:45.128Z,20.52
2022-08-18T21:19:26.664Z,30.00
2022-08-18T21:22:01.599Z,27.45
2022-08-18T21:24:34.329Z,21.10
2022-08-18T21:27:10.170Z,17.58
2022-08-18T21:29:47.370Z,22.58
2022-08-18T21:32:24.975Z,17.48
2022-08-18T21:34:52.829Z,17.55
2022-08-18T21:37:21.310Z,15.68
2022-08-18T21:39:54.088Z,33.13
2022-08-18T21:42:26.800Z,15.02
2022-08-18T21:44:55.485Z,12.35
2022-08-18T21:47:26.119Z,10.60
2022-08-18T21:50:03.037Z,12.25
2022-08-18T21:52:31.192Z,13.70
2022-08-18T21:55:02.344Z,22.02
2022-08-18T21:57:46.873Z,11.40
2022-08-18T22:00:20.455Z,14.25
2022-08-18T22:02:51.305Z,16.50
2022-08-18T22:05:58.892Z,12.02
2022-08-18T22:08:28.589Z,11.13
2022-08-18T22:11:59.840Z,12.70
2022-08-18T22:14:15.936Z,8.02
2022-08-18T22:16:45.076Z,11.30
2022-08-18T22:19:23.923Z,14.13
2022-08-18T22:21:59.599Z,10.68
2022-08-18T22:24:35.251Z,11.27
2022-08-18T22:27:15.264Z,12.48
2022-08-18T22:29:46.456Z,7.95
2022-08-18T22:32:14.163Z,14.60
2022-08-18T22:34:42.348Z,7.43
2022-08-18T22:37:10.152Z,11.68
2022-08-18T22:39:48.323Z,8.70
2022-08-18T22:42:17.180Z,10.98
2022-08-18T22:44:45.402Z,9.43
2022-08-18T22:47:13.096Z,9.65
2022-08-18T22:49:40.956Z,7.28
2022-08-18T22:52:12.349Z,6.25
2022-08-18T22:54:39.838Z,6.38
2022-08-18T22:57:11.308Z,4.85
2022-08-18T22:59:42.697Z,6.68
2022-08-18T23:02:11.384Z,6.30
2022-08-18T23:04:38.960Z,8.10
2022-08-18T23:07:06.970Z,9.23
2022-08-18T23:09:34.889Z,8.43
2022-08-18T23:12:04.664Z,5.93
2022-08-18T23:14:33.169Z,9.50
2022-08-18T23:17:01.433Z,7.60
2022-08-18T23:19:31.589Z,9.20
2022-08-18T23:21:59.703Z,9.18
2022-08-18T23:24:27.235Z,9.18
2022-08-18T23:26:54.795Z,7.15
2022-08-18T23:29:22.571Z,6.97
2022-08-18T23:31:50.791Z,7.13
2022-08-18T23:34:19.248Z,8.10
2022-08-18T23:36:51.943Z,8.70
2022-08-18T23:39:19.434Z,9.13
2022-08-18T23:41:46.943Z,6.25
2022-08-18T23:44:16.465Z,6.70
2022-08-18T23:46:44.686Z,7.43
2022-08-18T23:49:14.929Z,5.40
2022-08-18T23:51:51.026Z,5.95
2022-08-18T23:54:21.663Z,6.18
2022-08-18T23:56:49.674Z,6.93
2022-08-18T23:59:18.034Z,5.05
